createdAt,value
2019-04-06T00:01:19.767Z,34.37
2019-04-06T00:03:46.078Z,33.60
2019-04-06T00:06:12.629Z,34.70
2019-04-06T00:08:38.982Z,32.97
2019-04-06T00:11:05.453Z,33.40
2019-04-06T00:13:31.874Z,31.13
2019-04-06T00:16:01.156Z,32.73
2019-04-06T00:18:27.392Z,32.27
2019-04-06T00:20:53.725Z,32.63
2019-04-06T00:23:20.026Z,31.17
2019-04-06T00:25:46.529Z,31.33
2019-04-06T00:28:12.877Z,30.53
2019-04-06T00:30:41.025Z,33.30
2019-04-06T00:33:09.685Z,31.27
2019-04-06T00:35:35.999Z,31.70
2019-04-06T00:38:04.320Z,31.07
2019-04-06T00:40:30.768Z,31.03
2019-04-06T00:42:57.461Z,33.27
2019-04-06T00:45:23.892Z,32.90
2019-04-06T00:47:50.286Z,30.50
2019-04-06T00:50:16.947Z,33.60
2019-04-06T00:52:43.450Z,34.67
2019-04-06T00:55:09.706Z,32.30
2019-04-06T00:57:36.040Z,32.67
2019-04-06T01:00:05.048Z,31.67
2019-04-06T01:02:31.392Z,33.00
2019-04-06T01:04:59.178Z,33.37
2019-04-06T01:07:28.457Z,34.10
2019-04-06T01:09:55.292Z,33.50
2019-04-06T01:12:21.559Z,34.70
2019-04-06T01:14:47.830Z,34.83
2019-04-06T01:17:14.238Z,33.73
2019-04-06T01:19:40.702Z,35.70
2019-04-06T01:22:07.343Z,38.40
2019-04-06T01:24:33.718Z,35.67
2019-04-06T01:27:00.412Z,36.90
2019-04-06T01:29:27.948Z,37.40
2019-04-06T01:31:54.246Z,37.60
2019-04-06T01:34:20.964Z,38.77
2019-04-06T01:36:47.309Z,40.73
2019-04-06T01:39:14.184Z,37.90
2019-04-06T01:41:40.512Z,41.10
2019-04-06T01:44:06.967Z,39.53
2019-04-06T01:46:33.218Z,40.23
2019-04-06T01:48:59.649Z,39.77
2019-04-06T01:51:25.942Z,37.60
2019-04-06T01:53:52.650Z,38.33
2019-04-06T01:56:19.284Z,37.97
2019-04-06T01:58:45.624Z,38.03
2019-04-06T02:01:13.900Z,37.80
2019-04-06T02:03:40.156Z,38.23
2019-04-06T02:06:06.701Z,37.60
2019-04-06T02:08:36.031Z,38.00
2019-04-06T02:11:04.197Z,38.13
2019-04-06T02:13:30.397Z,40.20
2019-04-06T02:15:56.847Z,39.97
2019-04-06T02:18:23.164Z,39.30
2019-04-06T02:20:49.689Z,39.17
2019-04-06T02:23:19.131Z,39.00
2019-04-06T02:25:45.437Z,37.30
2019-04-06T02:28:11.729Z,39.93
2019-04-06T02:30:39.950Z,39.80
2019-04-06T02:33:08.279Z,39.30
2019-04-06T02:35:42.348Z,39.60
2019-04-06T02:38:19.697Z,36.37
2019-04-06T02:41:00.167Z,35.90
2019-04-06T02:43:28.513Z,37.27
2019-04-06T02:45:54.794Z,37.67
2019-04-06T02:48:21.402Z,39.77
2019-04-06T02:50:47.755Z,37.83
2019-04-06T02:53:16.807Z,37.80
2019-04-06T02:55:43.106Z,40.53
2019-04-06T02:58:09.609Z,38.80
2019-04-06T03:00:36.095Z,39.23
2019-04-06T03:03:02.571Z,37.43
2019-04-06T03:05:29.125Z,38.93
2019-04-06T03:07:55.562Z,40.10
2019-04-06T03:10:22.000Z,36.20
2019-04-06T03:12:51.068Z,39.23
2019-04-06T03:15:17.463Z,36.10
2019-04-06T03:17:43.979Z,36.83
2019-04-06T03:20:10.444Z,38.70
2019-04-06T03:22:37.180Z,38.30
2019-04-06T03:25:06.175Z,38.77
2019-04-06T03:27:32.708Z,38.00
2019-04-06T03:29:59.378Z,36.83
2019-04-06T03:32:26.225Z,40.47
2019-04-06T03:34:52.697Z,39.40
2019-04-06T03:37:18.962Z,38.67
2019-04-06T03:39:45.299Z,37.97
2019-04-06T03:42:11.785Z,39.00
2019-04-06T03:44:39.750Z,35.80
2019-04-06T03:47:06.215Z,38.67
2019-04-06T03:49:32.473Z,37.17
2019-04-06T03:51:58.781Z,36.10
2019-04-06T03:54:25.088Z,35.87
2019-04-06T03:56:51.367Z,33.00
2019-04-06T03:59:17.779Z,36.00
2019-04-06T04:01:44.194Z,35.73
2019-04-06T04:04:10.502Z,35.73
2019-04-06T04:06:36.810Z,36.07
2019-04-06T04:09:04.954Z,36.43
2019-04-06T04:11:31.187Z,35.87
2019-04-06T04:13:59.107Z,35.70
2019-04-06T04:16:25.427Z,38.83
2019-04-06T04:18:52.133Z,39.10
2019-04-06T04:21:20.613Z,38.67
2019-04-06T04:23:46.858Z,36.10
2019-04-06T04:26:13.421Z,38.97
2019-04-06T04:28:39.766Z,36.50
2019-04-06T04:31:06.229Z,37.67
2019-04-06T04:33:33.083Z,35.30
2019-04-06T04:35:59.350Z,35.13
2019-04-06T04:38:25.995Z,34.50
2019-04-06T04:40:52.695Z,34.43
2019-04-06T04:43:18.953Z,36.23
2019-04-06T04:45:45.305Z,36.20
2019-04-06T04:48:11.754Z,35.73
2019-04-06T04:50:38.110Z,34.90
2019-04-06T04:53:04.402Z,35.77
2019-04-06T04:55:30.793Z,36.90
2019-04-06T04:57:57.057Z,36.77
2019-04-06T05:00:23.335Z,35.43
2019-04-06T05:02:49.691Z,36.13
2019-04-06T05:05:17.445Z,37.00
2019-04-06T05:07:43.877Z,36.67
2019-04-06T05:10:10.868Z,37.43
2019-04-06T05:12:41.417Z,36.23
2019-04-06T05:15:14.483Z,36.53
2019-04-06T05:17:40.760Z,38.27
2019-04-06T05:20:07.729Z,38.97
2019-04-06T05:22:34.358Z,37.00
2019-04-06T05:25:00.707Z,37.87
2019-04-06T05:27:27.037Z,39.13
2019-04-06T05:29:56.493Z,39.07
2019-04-06T05:32:22.935Z,37.77
2019-04-06T05:34:49.624Z,39.17
2019-04-06T05:37:15.908Z,36.70
2019-04-06T05:39:42.958Z,38.37
2019-04-06T05:42:09.732Z,39.80
2019-04-06T05:44:36.098Z,38.87
2019-04-06T05:47:03.022Z,38.93
2019-04-06T05:49:29.536Z,39.53
2019-04-06T05:51:56.356Z,42.07
2019-04-06T05:54:22.749Z,42.97
2019-04-06T05:56:49.046Z,41.00
2019-04-06T05:59:18.397Z,43.27
2019-04-06T06:01:48.934Z,44.27
2019-04-06T06:04:15.867Z,44.27
2019-04-06T06:06:42.134Z,45.90
2019-04-06T06:09:14.177Z,47.00
2019-04-06T06:11:40.649Z,46.63
2019-04-06T06:14:07.183Z,48.43
2019-04-06T06:16:38.861Z,48.00
2019-04-06T06:19:05.167Z,47.60
2019-04-06T06:21:31.451Z,46.47
2019-04-06T06:23:57.915Z,45.77
2019-04-06T06:26:24.350Z,46.17
2019-04-06T06:28:50.903Z,47.80
2019-04-06T06:31:17.302Z,47.70
2019-04-06T06:33:44.032Z,49.37
2019-04-06T06:36:10.739Z,50.60
2019-04-06T06:38:39.282Z,51.27
2019-04-06T06:41:05.908Z,51.00
2019-04-06T06:43:32.227Z,51.40
2019-04-06T06:45:59.131Z,53.77
2019-04-06T06:48:25.811Z,54.90
2019-04-06T06:50:52.080Z,54.23
2019-04-06T06:53:18.438Z,54.10
2019-04-06T06:55:44.807Z,55.20
2019-04-06T06:58:11.161Z,53.20
2019-04-06T07:00:37.561Z,55.20
2019-04-06T07:03:04.204Z,54.90
2019-04-06T07:05:30.712Z,53.13
2019-04-06T07:07:57.096Z,53.73
2019-04-06T07:10:23.488Z,56.70
2019-04-06T07:12:49.787Z,56.07
2019-04-06T07:15:16.326Z,53.40
2019-04-06T07:17:42.749Z,53.87
2019-04-06T07:20:09.310Z,55.03
2019-04-06T07:22:35.635Z,55.33
2019-04-06T07:25:05.282Z,55.13
2019-04-06T07:27:31.606Z,55.33
2019-04-06T07:29:57.995Z,56.30
2019-04-06T07:32:24.367Z,54.47
2019-04-06T07:34:50.610Z,55.43
2019-04-06T07:37:17.273Z,55.40
2019-04-06T07:39:49.502Z,54.03
2019-04-06T07:42:15.838Z,53.07
2019-04-06T07:44:42.477Z,52.70
2019-04-06T07:47:09.027Z,55.47
2019-04-06T07:49:35.663Z,53.20
2019-04-06T07:52:02.429Z,53.97
2019-04-06T07:54:28.833Z,54.47
2019-04-06T07:56:55.102Z,53.63
2019-04-06T07:59:23.183Z,54.37
2019-04-06T08:01:49.612Z,54.60
2019-04-06T08:04:19.307Z,53.20
2019-04-06T08:06:47.485Z,53.17
2019-04-06T08:09:13.861Z,52.90
2019-04-06T08:11:40.227Z,52.43
2019-04-06T08:14:06.486Z,51.60
2019-04-06T08:16:32.985Z,51.23
2019-04-06T08:18:59.715Z,50.10
2019-04-06T08:21:26.274Z,52.70
2019-04-06T08:23:52.771Z,51.87
2019-04-06T08:26:19.158Z,52.03
2019-04-06T08:28:45.408Z,51.67
2019-04-06T08:31:11.833Z,49.90
2019-04-06T08:33:38.490Z,49.77
2019-04-06T08:36:04.870Z,49.77
2019-04-06T08:38:31.703Z,49.20
2019-04-06T08:40:58.091Z,50.53
2019-04-06T08:43:30.461Z,49.27
2019-04-06T08:45:57.147Z,49.20
2019-04-06T08:48:23.588Z,49.30
2019-04-06T08:50:49.968Z,49.33
2019-04-06T08:53:16.368Z,51.07
2019-04-06T08:55:42.826Z,51.63
2019-04-06T08:58:10.239Z,53.10
2019-04-06T09:00:36.959Z,51.77
2019-04-06T09:03:04.702Z,50.60
2019-04-06T09:05:31.222Z,51.20
2019-04-06T09:07:57.519Z,48.77
2019-04-06T09:10:23.812Z,51.60
2019-04-06T09:12:50.167Z,50.60
2019-04-06T09:15:16.889Z,47.20
2019-04-06T09:17:44.712Z,49.20
2019-04-06T09:20:11.393Z,50.03
2019-04-06T09:22:37.831Z,48.90
2019-04-06T09:25:05.349Z,47.40
2019-04-06T09:27:31.801Z,47.17
2019-04-06T09:29:58.186Z,48.53
2019-04-06T09:32:24.608Z,45.80
2019-04-06T09:34:51.280Z,48.37
2019-04-06T09:37:18.176Z,46.07
2019-04-06T09:39:44.699Z,48.07
2019-04-06T09:42:11.153Z,46.30
2019-04-06T09:44:58.112Z,48.97
2019-04-06T09:47:32.819Z,48.63
2019-04-06T09:50:19.379Z,46.23
2019-04-06T09:53:06.377Z,47.23
2019-04-06T09:55:37.298Z,45.33
2019-04-06T09:58:14.435Z,47.80
2019-04-06T10:00:44.279Z,45.47
2019-04-06T10:03:33.619Z,47.10
2019-04-06T10:06:01.758Z,46.57
2019-04-06T10:08:29.940Z,46.50
2019-04-06T10:11:15.191Z,47.83
2019-04-06T10:13:52.549Z,46.47
2019-04-06T10:16:37.585Z,46.77
2019-04-06T10:22:04.294Z,49.53
2019-04-06T10:24:32.808Z,46.57
2019-04-06T10:27:07.028Z,48.20
2019-04-06T10:29:46.798Z,46.70
2019-04-06T10:32:05.421Z,45.37
2019-04-06T10:34:50.276Z,47.00
2019-04-06T10:37:24.620Z,46.07
2019-04-06T10:40:10.168Z,43.77
2019-04-06T10:42:45.425Z,43.37
2019-04-06T10:45:13.877Z,46.20
2019-04-06T10:47:42.562Z,44.70
2019-04-06T10:50:13.874Z,46.13
2019-04-06T10:52:51.521Z,42.57
2019-04-06T10:55:19.881Z,43.73
2019-04-06T10:57:50.874Z,44.37
2019-04-06T11:00:34.590Z,43.50
2019-04-06T11:03:02.874Z,40.87
2019-04-06T11:05:34.199Z,41.07
2019-04-06T11:08:21.077Z,42.50
2019-04-06T11:10:49.568Z,44.50
2019-04-06T11:13:17.820Z,44.40
2019-04-06T11:15:46.356Z,36.77
2019-04-06T11:18:31.872Z,41.00
2019-04-06T11:21:17.177Z,41.80
2019-04-06T11:23:45.359Z,41.40
2019-04-06T11:26:30.477Z,41.80
2019-04-06T11:29:12.290Z,39.63
2019-04-06T11:31:43.810Z,41.23
2019-04-06T11:34:29.404Z,35.93
2019-04-06T11:37:06.232Z,34.20
2019-04-06T11:39:37.464Z,35.70
2019-04-06T11:42:18.113Z,36.63
2019-04-06T11:47:35.075Z,34.20
2019-04-06T11:50:05.982Z,35.20
2019-04-06T11:52:46.324Z,36.90
2019-04-06T11:55:35.889Z,37.40
2019-04-06T11:58:06.885Z,35.77
2019-04-06T12:00:38.931Z,35.77
2019-04-06T12:03:07.704Z,33.30
2019-04-06T12:05:41.951Z,32.97
2019-04-06T12:08:26.742Z,33.37
2019-04-06T12:11:11.766Z,32.60
2019-04-06T12:13:40.158Z,32.70
2019-04-06T12:16:11.308Z,33.27
2019-04-06T12:18:45.467Z,30.97
2019-04-06T12:21:19.730Z,32.17
2019-04-06T12:23:53.824Z,32.97
2019-04-06T12:26:39.002Z,32.27
2019-04-06T12:29:15.785Z,31.10
2019-04-06T12:31:52.137Z,34.47
2019-04-06T12:34:31.001Z,34.67
2019-04-06T12:37:17.494Z,37.53
2019-04-06T12:39:53.075Z,36.10
2019-04-06T12:42:35.431Z,30.60
2019-04-06T12:45:03.826Z,34.43
2019-04-06T12:47:40.918Z,32.77
2019-04-06T12:50:13.952Z,27.03
2019-04-06T12:52:59.134Z,29.87
2019-04-06T12:55:27.275Z,29.03
2019-04-06T12:57:55.650Z,25.30
2019-04-06T13:00:29.991Z,23.97
2019-04-06T13:03:01.230Z,24.87
2019-04-06T13:05:46.321Z,27.67
2019-04-06T13:08:26.623Z,27.37
2019-04-06T13:11:01.131Z,29.40
2019-04-06T13:13:32.438Z,27.10
2019-04-06T13:16:06.407Z,27.20
2019-04-06T13:18:37.226Z,26.80
2019-04-06T13:21:16.088Z,24.10
2019-04-06T13:23:44.272Z,24.07
2019-04-06T13:26:29.030Z,23.97
2019-04-06T13:29:00.388Z,22.90
2019-04-06T13:31:38.330Z,21.87
2019-04-06T13:34:09.533Z,19.57
2019-04-06T13:36:50.317Z,19.00
2019-04-06T13:39:21.852Z,18.40
2019-04-06T13:41:52.078Z,19.40
2019-04-06T13:44:38.483Z,18.80
2019-04-06T13:47:07.277Z,19.37
2019-04-06T13:49:35.459Z,18.97
2019-04-06T13:52:09.575Z,19.40
2019-04-06T13:54:37.939Z,20.00
2019-04-06T13:57:14.910Z,20.50
2019-04-06T13:59:55.490Z,19.90
2019-04-06T14:02:26.980Z,18.63
2019-04-06T14:05:01.076Z,19.07
2019-04-06T14:07:46.494Z,19.37
2019-04-06T14:10:17.758Z,18.47
2019-04-06T14:12:55.152Z,19.83
2019-04-06T14:15:24.223Z,19.60
2019-04-06T14:18:04.330Z,19.70
2019-04-06T14:20:44.633Z,18.87
2019-04-06T14:23:15.833Z,18.60
2019-04-06T14:25:56.708Z,18.37
2019-04-06T14:28:37.493Z,18.50
2019-04-06T14:31:28.373Z,18.90
2019-04-06T14:33:55.605Z,18.53
2019-04-06T14:36:24.181Z,18.10
2019-04-06T14:39:02.111Z,18.93
2019-04-06T14:41:45.891Z,17.53
2019-04-06T14:44:16.573Z,16.80
2019-04-06T14:47:03.526Z,15.17
2019-04-06T14:49:34.526Z,16.60
2019-04-06T14:52:08.983Z,15.53
2019-04-06T14:54:43.344Z,16.97
2019-04-06T14:57:21.448Z,15.87
2019-04-06T14:59:50.277Z,17.60
2019-04-06T15:02:21.579Z,15.50
2019-04-06T15:04:52.541Z,16.80
2019-04-06T15:07:21.407Z,17.50
2019-04-06T15:09:59.703Z,16.70
2019-04-06T15:12:32.444Z,18.43
2019-04-06T15:15:18.162Z,18.40
2019-04-06T15:17:50.575Z,16.20
2019-04-06T15:20:19.271Z,19.00
2019-04-06T15:22:53.547Z,18.07
2019-04-06T15:25:30.631Z,18.90
2019-04-06T15:28:01.741Z,18.93
2019-04-06T15:30:30.592Z,19.13
2019-04-06T15:32:59.216Z,18.77
2019-04-06T15:38:19.245Z,18.80
2019-04-06T15:40:47.629Z,19.50
2019-04-06T15:43:18.804Z,20.10
2019-04-06T15:45:49.434Z,23.30
2019-04-06T15:48:20.447Z,23.40
2019-04-06T15:51:00.888Z,24.13
2019-04-06T15:53:29.141Z,25.80
2019-04-06T15:56:06.865Z,27.47
2019-04-06T15:58:37.985Z,26.60
2019-04-06T16:01:06.238Z,31.13
2019-04-06T16:03:34.815Z,29.70
2019-04-06T16:06:03.102Z,30.43
2019-04-06T16:08:34.484Z,32.63
2019-04-06T16:11:03.210Z,31.20
2019-04-06T16:13:38.457Z,31.20
2019-04-06T16:16:12.674Z,30.97
2019-04-06T16:18:46.781Z,29.13
2019-04-06T16:21:21.843Z,31.10
2019-04-06T16:24:03.559Z,29.83
2019-04-06T16:26:32.134Z,30.17
2019-04-06T16:29:00.577Z,28.83
2019-04-06T16:31:28.804Z,29.47
2019-04-06T16:34:00.086Z,31.57
2019-04-06T16:36:31.049Z,30.33
2019-04-06T16:39:17.374Z,30.93
2019-04-06T16:42:02.273Z,28.80
2019-04-06T16:44:35.349Z,31.13
2019-04-06T16:47:09.699Z,31.03
2019-04-06T16:49:54.163Z,30.60
2019-04-06T16:52:28.135Z,31.50
2019-04-06T16:55:10.989Z,31.83
2019-04-06T16:57:42.553Z,31.10
2019-04-06T17:00:19.687Z,32.57
2019-04-06T17:02:45.569Z,32.80
2019-04-06T17:05:32.207Z,31.07
2019-04-06T17:08:22.527Z,30.77
2019-04-06T17:11:00.502Z,32.30
2019-04-06T17:13:27.180Z,30.87
2019-04-06T17:16:01.817Z,32.50
2019-04-06T17:18:30.081Z,33.30
2019-04-06T17:21:12.781Z,31.40
2019-04-06T17:23:43.325Z,33.57
2019-04-06T17:26:20.530Z,31.97
2019-04-06T17:29:06.571Z,32.63
2019-04-06T17:31:46.911Z,33.13
2019-04-06T17:34:22.244Z,32.70
2019-04-06T17:36:50.488Z,33.00
2019-04-06T17:39:24.667Z,32.80
2019-04-06T17:41:53.158Z,32.27
2019-04-06T17:44:27.134Z,34.63
2019-04-06T17:47:14.370Z,32.20
2019-04-06T17:49:54.601Z,30.07
2019-04-06T17:52:30.126Z,31.20
2019-04-06T17:55:07.384Z,32.50
2019-04-06T17:57:42.033Z,33.50
2019-04-06T18:00:14.408Z,32.07
2019-04-06T18:02:59.682Z,33.10
2019-04-06T18:05:34.058Z,30.20
2019-04-06T18:08:11.097Z,31.00
2019-04-06T18:10:48.341Z,31.57
2019-04-06T18:13:17.668Z,28.17
2019-04-06T18:15:44.083Z,34.80
2019-04-06T18:18:10.547Z,34.87
2019-04-06T18:20:37.005Z,34.60
2019-04-06T18:23:08.610Z,35.90
2019-04-06T18:25:35.146Z,36.70
2019-04-06T18:28:01.589Z,39.63
2019-04-06T18:30:28.177Z,38.90
2019-04-06T18:33:01.249Z,38.47
2019-04-06T18:35:25.608Z,37.70
2019-04-06T18:37:54.625Z,36.93
2019-04-06T18:40:25.266Z,37.63
2019-04-06T18:42:54.534Z,34.30
2019-04-06T18:45:21.213Z,35.97
2019-04-06T18:47:47.653Z,36.13
2019-04-06T18:50:15.656Z,35.37
2019-04-06T18:52:42.065Z,36.77
2019-04-06T18:55:08.958Z,33.57
2019-04-06T18:57:35.835Z,36.17
2019-04-06T19:00:06.222Z,35.50
2019-04-06T19:02:33.445Z,34.33
2019-04-06T19:04:59.932Z,36.17
2019-04-06T19:07:26.316Z,36.67
2019-04-06T19:09:52.736Z,37.27
2019-04-06T19:12:21.591Z,34.80
2019-04-06T19:14:47.911Z,37.33
2019-04-06T19:17:15.416Z,37.47
2019-04-06T19:19:42.204Z,34.07
2019-04-06T19:22:08.515Z,35.77
2019-04-06T19:24:35.519Z,37.17
2019-04-06T19:27:01.853Z,37.60
2019-04-06T19:29:28.395Z,38.30
2019-04-06T19:31:57.249Z,39.10
2019-04-06T19:34:23.226Z,38.97
2019-04-06T19:36:49.941Z,38.47
2019-04-06T19:39:16.595Z,38.53
2019-04-06T19:41:43.296Z,38.63
2019-04-06T19:44:10.216Z,37.00
2019-04-06T19:46:39.743Z,38.17
2019-04-06T19:49:06.632Z,37.70
2019-04-06T19:51:33.142Z,38.90
2019-04-06T19:53:59.706Z,37.70
2019-04-06T19:56:26.513Z,37.57
2019-04-06T19:58:52.916Z,39.57
2019-04-06T20:01:19.183Z,38.07
2019-04-06T20:03:45.975Z,38.43
2019-04-06T20:06:12.276Z,39.13
2019-04-06T20:08:38.680Z,39.17
2019-04-06T20:11:05.277Z,39.77
2019-04-06T20:13:37.849Z,42.30
2019-04-06T20:16:04.731Z,38.57
2019-04-06T20:18:31.352Z,39.37
2019-04-06T20:20:57.838Z,39.90
2019-04-06T20:23:24.521Z,41.30
2019-04-06T20:25:53.499Z,42.03
2019-04-06T20:28:20.127Z,40.33
2019-04-06T20:31:06.584Z,40.07
2019-04-06T20:33:37.600Z,40.70
2019-04-06T20:36:02.476Z,39.90
2019-04-06T20:38:28.895Z,39.40
2019-04-06T20:40:55.328Z,39.40
2019-04-06T20:43:22.190Z,40.70
2019-04-06T20:45:48.880Z,40.73
2019-04-06T20:48:15.196Z,41.07
2019-04-06T20:50:45.293Z,42.77
2019-04-06T20:53:12.233Z,41.80
2019-04-06T20:55:38.846Z,40.70
2019-04-06T20:58:05.116Z,40.43
2019-04-06T21:00:31.523Z,41.03
2019-04-06T21:02:59.191Z,42.60
2019-04-06T21:05:25.574Z,39.73
2019-04-06T21:07:52.487Z,39.60
2019-04-06T21:10:19.182Z,39.93
2019-04-06T21:12:45.975Z,40.97
2019-04-06T21:15:19.055Z,42.90
2019-04-06T21:17:40.696Z,41.50
2019-04-06T21:20:07.388Z,41.27
2019-04-06T21:22:35.220Z,39.77
2019-04-06T21:25:04.685Z,39.77
2019-04-06T21:27:31.321Z,40.40
2019-04-06T21:29:58.336Z,42.10
2019-04-06T21:32:26.273Z,41.90
2019-04-06T21:34:56.112Z,41.37
2019-04-06T21:37:22.789Z,41.23
2019-04-06T21:39:49.539Z,41.53
2019-04-06T21:42:16.235Z,40.47
2019-04-06T21:44:42.507Z,38.80
2019-04-06T21:47:28.816Z,40.80
2019-04-06T21:49:55.545Z,39.17
2019-04-06T21:52:22.621Z,41.30
2019-04-06T21:54:49.140Z,40.80
2019-04-06T21:57:18.611Z,39.37
2019-04-06T21:59:46.023Z,39.73
2019-04-06T22:02:12.853Z,40.90
2019-04-06T22:04:40.950Z,39.17
2019-04-06T22:07:07.486Z,41.03
2019-04-06T22:09:33.924Z,39.03
2019-04-06T22:12:00.381Z,39.37
2019-04-06T22:14:26.983Z,41.30
2019-04-06T22:16:53.568Z,39.70
2019-04-06T22:19:20.241Z,40.33
2019-04-06T22:21:47.255Z,39.27
2019-04-06T22:24:14.902Z,39.07
2019-04-06T22:26:41.981Z,41.10
2019-04-06T22:29:11.765Z,38.80
2019-04-06T22:31:39.406Z,39.93
2019-04-06T22:34:05.834Z,39.93
2019-04-06T22:36:32.121Z,39.93
2019-04-06T22:38:58.372Z,39.10
2019-04-06T22:41:25.090Z,38.17
2019-04-06T22:43:51.541Z,39.83
2019-04-06T22:46:17.946Z,39.90
2019-04-06T22:48:46.942Z,38.70
2019-04-06T22:51:13.816Z,41.27
2019-04-06T22:53:40.876Z,40.37
2019-04-06T22:56:07.410Z,38.37
2019-04-06T22:58:33.722Z,41.70
2019-04-06T23:01:02.489Z,39.70
2019-04-06T23:03:47.799Z,40.87
2019-04-06T23:06:16.357Z,40.50
2019-04-06T23:08:42.871Z,37.07
2019-04-06T23:11:09.646Z,39.67
2019-04-06T23:13:37.116Z,37.93
2019-04-06T23:16:03.710Z,40.10
2019-04-06T23:18:30.112Z,39.10
2019-04-06T23:20:56.562Z,39.03
2019-04-06T23:23:24.962Z,39.13
2019-04-06T23:25:51.851Z,37.97
2019-04-06T23:28:18.373Z,38.40
2019-04-06T23:30:45.256Z,38.57
2019-04-06T23:33:12.240Z,38.67
2019-04-06T23:35:39.634Z,36.40
2019-04-06T23:38:06.098Z,36.97
2019-04-06T23:40:33.762Z,36.43
2019-04-06T23:43:00.253Z,38.17
2019-04-06T23:45:26.553Z,36.23
2019-04-06T23:47:52.948Z,37.00
2019-04-06T23:50:19.629Z,38.13
2019-04-06T23:52:45.916Z,36.47
2019-04-06T23:55:12.216Z,38.50
2019-04-06T23:57:38.645Z,38.97
